createdAt,value
2019-05-29T00:00:18.253Z,53374.16
2019-05-29T00:02:46.794Z,53379.23
2019-05-29T00:05:15.304Z,53415.75
2019-05-29T00:07:43.932Z,53438.07
2019-05-29T00:10:12.515Z,53417.78
2019-05-29T00:12:40.917Z,53468.50
2019-05-29T00:15:10.384Z,53380.25
2019-05-29T00:17:41.553Z,53404.59
2019-05-29T00:20:10.543Z,53414.74
2019-05-29T00:22:39.000Z,53440.10
2019-05-29T00:25:08.549Z,53440.10
2019-05-29T00:27:37.008Z,53490.82
2019-05-29T00:30:06.921Z,53473.57
2019-05-29T00:32:35.744Z,53511.11
2019-05-29T00:35:06.473Z,53473.57
2019-05-29T00:37:34.875Z,53441.11
2019-05-29T00:40:05.209Z,53392.42
2019-05-29T00:42:33.606Z,53411.70
2019-05-29T00:45:02.029Z,53458.36
2019-05-29T00:47:30.449Z,53452.27
2019-05-29T00:49:59.095Z,53548.64
2019-05-29T00:52:27.489Z,53585.16
2019-05-29T00:54:56.117Z,53601.39
2019-05-29T00:57:24.749Z,53670.37
2019-05-29T00:59:53.204Z,53670.37
2019-05-29T01:02:21.826Z,53651.10
2019-05-29T01:04:50.232Z,53704.87
2019-05-29T01:07:18.622Z,53640.95
2019-05-29T01:09:47.026Z,53605.45
2019-05-29T01:12:15.476Z,53605.45
2019-05-29T01:14:50.024Z,53569.95
2019-05-29T01:17:14.177Z,53634.87
2019-05-29T01:19:42.563Z,53634.87
2019-05-29T01:22:12.243Z,53657.19
2019-05-29T01:24:40.668Z,53657.19
2019-05-29T01:27:09.091Z,53669.36
2019-05-29T01:29:37.491Z,53673.41
2019-05-29T01:32:05.921Z,53685.59
2019-05-29T01:34:34.305Z,53707.91
2019-05-29T01:37:02.711Z,53707.91
2019-05-29T01:39:31.405Z,53743.41
2019-05-29T01:41:59.815Z,53743.41
2019-05-29T01:44:28.201Z,53752.54
2019-05-29T01:46:56.606Z,53754.57
2019-05-29T01:49:24.988Z,53780.95
2019-05-29T01:51:53.403Z,53780.95
2019-05-29T01:54:21.797Z,53758.63
2019-05-29T01:56:50.204Z,53755.59
2019-05-29T01:59:19.682Z,53748.49
2019-05-29T02:01:48.275Z,53730.23
2019-05-29T02:04:17.834Z,53730.23
2019-05-29T02:06:46.272Z,53774.86
2019-05-29T02:09:15.871Z,53774.86
2019-05-29T02:11:44.251Z,53785.01
2019-05-29T02:14:12.647Z,53863.12
2019-05-29T02:16:41.061Z,53835.73
2019-05-29T02:19:09.452Z,53835.73
2019-05-29T02:21:38.072Z,53898.63
2019-05-29T02:24:06.481Z,53870.23
2019-05-29T02:26:34.882Z,53874.29
2019-05-29T02:29:03.349Z,53874.29
2019-05-29T02:31:31.767Z,53895.59
2019-05-29T02:34:00.409Z,53879.36
2019-05-29T02:36:28.810Z,53913.85
2019-05-29T02:38:57.194Z,53936.17
2019-05-29T02:41:27.934Z,53976.75
2019-05-29T02:43:56.198Z,53976.75
2019-05-29T02:46:26.510Z,53983.85
2019-05-29T02:48:54.719Z,53983.85
2019-05-29T02:51:24.250Z,53984.87
2019-05-29T02:53:52.723Z,54009.22
2019-05-29T02:56:22.942Z,54034.58
2019-05-29T02:58:51.497Z,54051.83
2019-05-29T03:01:21.554Z,54051.83
2019-05-29T03:03:50.526Z,54088.35
2019-05-29T03:06:18.962Z,54139.08
2019-05-29T03:08:47.848Z,54186.77
2019-05-29T03:11:16.242Z,54186.77
2019-05-29T03:13:44.705Z,54347.07
2019-05-29T03:16:13.451Z,54347.07
2019-05-29T03:18:41.807Z,54489.13
2019-05-29T03:21:10.217Z,54771.21
2019-05-29T03:23:38.628Z,54771.21
2019-05-29T03:26:07.102Z,55037.09
2019-05-29T03:28:35.483Z,55158.87
2019-05-29T03:31:04.423Z,55158.87
2019-05-29T03:33:48.264Z,55233.96
2019-05-29T03:36:09.793Z,55288.77
2019-05-29T03:38:38.648Z,55318.20
2019-05-29T03:41:07.068Z,55354.73
2019-05-29T03:43:36.136Z,55394.32
2019-05-29T03:46:29.198Z,55396.34
2019-05-29T03:48:42.004Z,55453.18
2019-05-29T03:51:10.718Z,55481.60
2019-05-29T03:53:39.406Z,55481.60
2019-05-29T03:56:07.799Z,55529.30
2019-05-29T03:58:37.769Z,55560.76
2019-05-29T04:01:06.329Z,55560.76
2019-05-29T04:03:35.691Z,55563.81
2019-05-29T04:06:05.524Z,55556.70
2019-05-29T04:08:35.523Z,55556.70
2019-05-29T04:11:04.089Z,55569.90
2019-05-29T04:13:34.107Z,55570.91
2019-05-29T04:16:03.697Z,55618.61
2019-05-29T04:18:35.815Z,55618.61
2019-05-29T04:21:06.238Z,55631.81
2019-05-29T04:23:36.289Z,55601.36
2019-05-29T04:26:04.878Z,55601.36
2019-05-29T04:28:34.878Z,55578.02
2019-05-29T04:31:03.594Z,55568.88
2019-05-29T04:33:32.605Z,55568.88
2019-05-29T04:36:01.735Z,55549.60
2019-05-29T04:38:31.157Z,55532.34
2019-05-29T04:41:00.212Z,55566.85
2019-05-29T04:43:28.902Z,55524.22
2019-05-29T04:45:57.748Z,55521.18
2019-05-29T04:48:34.015Z,55596.29
2019-05-29T04:51:10.835Z,55596.29
2019-05-29T04:53:42.916Z,55573.96
2019-05-29T04:56:11.035Z,55560.76
2019-05-29T04:58:39.443Z,55583.09
2019-05-29T05:01:14.890Z,55584.11
2019-05-29T05:03:53.843Z,55510.02
2019-05-29T05:06:22.291Z,55483.63
2019-05-29T05:08:50.687Z,55463.33
2019-05-29T05:11:19.095Z,55463.33
2019-05-29T05:13:48.541Z,55404.46
2019-05-29T05:16:16.979Z,55404.46
2019-05-29T05:18:45.864Z,55428.82
2019-05-29T05:21:14.590Z,55437.96
2019-05-29T05:23:43.544Z,55420.70
2019-05-29T05:26:12.125Z,55480.58
2019-05-29T05:28:43.615Z,55436.94
2019-05-29T05:31:10.994Z,55416.64
2019-05-29T05:33:39.378Z,55416.64
2019-05-29T05:36:07.773Z,55385.18
2019-05-29T05:38:36.808Z,55333.42
2019-05-29T05:41:05.319Z,55331.39
2019-05-29T05:43:34.653Z,55258.32
2019-05-29T05:46:03.263Z,55226.86
2019-05-29T05:48:31.655Z,55295.87
2019-05-29T05:51:00.035Z,55278.62
2019-05-29T05:53:28.423Z,55275.57
2019-05-29T05:55:56.804Z,55260.35
2019-05-29T05:58:25.206Z,55177.13
2019-05-29T06:00:53.585Z,55155.82
2019-05-29T06:03:22.229Z,55206.56
2019-05-29T06:05:50.653Z,55281.66
2019-05-29T06:08:19.282Z,55115.23
2019-05-29T06:10:50.606Z,55171.04
2019-05-29T06:13:17.748Z,55105.08
2019-05-29T06:15:46.138Z,55110.15
2019-05-29T06:18:20.966Z,55100.00
2019-05-29T06:20:44.955Z,55027.95
2019-05-29T06:23:13.325Z,55020.85
2019-05-29T06:25:42.446Z,55108.12
2019-05-29T06:28:11.826Z,55077.68
2019-05-29T06:30:41.247Z,55014.76
2019-05-29T06:33:10.357Z,54993.45
2019-05-29T06:35:39.732Z,54973.15
2019-05-29T06:38:08.396Z,54936.62
2019-05-29T06:40:45.024Z,54845.29
2019-05-29T06:43:25.022Z,54892.98
2019-05-29T06:45:54.566Z,54969.09
2019-05-29T06:48:42.765Z,54984.32
2019-05-29T06:50:59.900Z,55014.76
2019-05-29T06:53:28.282Z,54927.49
2019-05-29T06:55:58.080Z,54890.96
2019-05-29T06:58:26.823Z,54960.98
2019-05-29T07:00:55.574Z,54911.25
2019-05-29T07:03:24.117Z,54914.30
2019-05-29T07:05:53.086Z,55054.34
2019-05-29T07:08:37.648Z,54995.48
2019-05-29T07:10:51.949Z,54947.78
2019-05-29T07:13:20.337Z,54922.41
2019-05-29T07:15:48.776Z,54882.84
2019-05-29T07:18:17.160Z,54892.98
2019-05-29T07:20:45.590Z,54879.79
2019-05-29T07:23:13.973Z,54831.09
2019-05-29T07:25:43.035Z,54897.04
2019-05-29T07:28:11.554Z,54799.63
2019-05-29T07:30:42.766Z,54747.87
2019-05-29T07:33:10.036Z,54859.50
2019-05-29T07:35:39.264Z,55142.63
2019-05-29T07:38:07.774Z,55060.43
2019-05-29T07:40:36.173Z,55027.95
2019-05-29T07:43:04.570Z,55103.05
2019-05-29T07:45:33.018Z,55096.96
2019-05-29T07:48:01.443Z,55012.73
2019-05-29T07:50:30.111Z,54992.43
2019-05-29T07:52:58.576Z,54892.98
2019-05-29T07:55:26.976Z,54862.54
2019-05-29T07:57:55.557Z,54832.10
2019-05-29T08:00:34.722Z,54851.38
2019-05-29T08:02:54.143Z,54895.02
2019-05-29T08:05:22.527Z,55005.63
2019-05-29T08:07:51.188Z,54976.20
2019-05-29T08:10:21.685Z,55135.52
2019-05-29T08:12:54.438Z,55032.01
2019-05-29T08:15:20.428Z,55051.29
2019-05-29T08:17:50.154Z,54731.64
2019-05-29T08:20:18.962Z,54659.59
2019-05-29T08:22:48.548Z,54785.42
2019-05-29T08:25:29.932Z,54831.09
2019-05-29T08:27:58.304Z,54839.20
2019-05-29T08:30:26.759Z,54885.88
2019-05-29T08:32:55.435Z,54862.54
2019-05-29T08:35:24.127Z,54944.74
2019-05-29T08:37:52.520Z,54852.39
2019-05-29T08:40:21.508Z,54847.32
2019-05-29T08:42:49.908Z,54883.85
2019-05-29T08:45:18.896Z,54697.14
2019-05-29T08:47:47.804Z,54659.59
2019-05-29T08:50:18.499Z,54722.51
2019-05-29T08:52:46.521Z,54738.74
2019-05-29T08:55:15.050Z,54778.32
2019-05-29T08:57:44.246Z,54652.49
2019-05-29T09:00:13.654Z,54553.05
2019-05-29T09:02:42.589Z,54762.08
2019-05-29T09:05:11.486Z,54777.30
2019-05-29T09:07:40.273Z,54726.57
2019-05-29T09:10:09.101Z,54692.07
2019-05-29T09:12:37.492Z,54788.46
2019-05-29T09:15:10.236Z,55004.61
2019-05-29T09:17:39.097Z,55007.66
2019-05-29T09:20:25.505Z,54911.25
2019-05-29T09:22:38.830Z,54570.30
2019-05-29T09:25:07.795Z,54652.49
2019-05-29T09:27:36.172Z,54289.24
2019-05-29T09:30:06.189Z,54416.07
2019-05-29T09:32:49.623Z,54182.71
2019-05-29T09:35:05.664Z,54005.16
2019-05-29T09:37:34.091Z,53934.14
2019-05-29T09:40:02.471Z,53563.86
2019-05-29T09:42:30.853Z,53388.36
2019-05-29T09:44:59.528Z,53660.23
2019-05-29T09:47:27.954Z,52973.50
2019-05-29T09:49:56.338Z,53140.86
2019-05-29T09:52:24.720Z,52667.20
2019-05-29T09:54:54.614Z,52453.21
2019-05-29T09:57:23.088Z,52666.19
2019-05-29T09:59:53.841Z,52615.48
2019-05-29T10:02:21.921Z,53305.18
2019-05-29T10:04:50.328Z,53067.83
2019-05-29T10:07:18.950Z,52753.41
2019-05-29T10:09:47.333Z,53094.20
2019-05-29T10:12:15.724Z,53195.63
2019-05-29T10:14:44.123Z,52385.26
2019-05-29T10:17:13.347Z,51950.22
2019-05-29T10:19:41.816Z,51589.25
2019-05-29T10:22:10.491Z,52022.22
2019-05-29T10:24:38.895Z,51159.37
2019-05-29T10:27:07.261Z,51676.45
2019-05-29T10:29:35.649Z,51666.31
2019-05-29T10:32:04.101Z,51124.90
2019-05-29T10:34:32.494Z,51758.58
2019-05-29T10:37:00.878Z,51415.87
2019-05-29T10:39:29.523Z,51365.18
2019-05-29T10:41:57.976Z,51653.13
2019-05-29T10:44:26.662Z,51435.14
2019-05-29T10:46:56.588Z,50710.27
2019-05-29T10:49:25.652Z,50516.66
2019-05-29T10:52:16.658Z,50597.75
2019-05-29T10:54:41.071Z,50517.68
2019-05-29T10:57:09.484Z,49913.59
2019-05-29T10:59:37.870Z,49295.40
2019-05-29T11:02:06.717Z,49613.60
2019-05-29T11:04:35.113Z,48890.09
2019-05-29T11:07:03.521Z,49195.08
2019-05-29T11:09:44.100Z,49265.00
2019-05-29T11:12:02.065Z,49052.21
2019-05-29T11:14:30.462Z,51028.59
2019-05-29T11:16:59.121Z,50002.77
2019-05-29T11:19:27.493Z,49535.57
2019-05-29T11:22:00.964Z,48486.84
2019-05-29T11:24:26.021Z,48244.71
2019-05-29T11:26:54.771Z,48278.14
2019-05-29T11:29:23.186Z,48408.83
2019-05-29T11:31:53.220Z,48650.97
2019-05-29T11:34:21.783Z,50118.32
2019-05-29T11:36:50.495Z,49244.73
2019-05-29T11:39:18.884Z,50510.58
2019-05-29T11:41:47.268Z,49205.21
2019-05-29T11:44:15.681Z,50026.09
2019-05-29T11:46:44.430Z,49555.84
2019-05-29T11:49:12.802Z,50566.33
2019-05-29T11:51:44.239Z,51460.48
2019-05-29T11:54:11.604Z,51380.39
2019-05-29T11:56:40.005Z,50593.70
2019-05-29T11:59:08.388Z,51520.30
2019-05-29T12:01:49.664Z,50903.89
2019-05-29T12:04:23.116Z,50532.88
2019-05-29T12:06:37.047Z,51544.64
2019-05-29T12:09:08.336Z,51698.75
2019-05-29T12:11:36.770Z,51478.73
2019-05-29T12:14:05.559Z,50818.74
2019-05-29T12:16:34.224Z,51225.27
2019-05-29T12:19:02.603Z,51457.44
2019-05-29T12:21:30.985Z,51745.40
2019-05-29T12:24:02.563Z,50840.03
2019-05-29T12:26:31.179Z,50047.37
2019-05-29T12:29:08.444Z,51204.99
2019-05-29T12:31:29.785Z,51687.60
2019-05-29T12:34:04.633Z,51851.86
2019-05-29T12:36:28.346Z,51217.16
2019-05-29T12:38:57.842Z,51285.08
2019-05-29T12:41:26.685Z,52266.61
2019-05-29T12:43:55.315Z,52530.29
2019-05-29T12:46:24.028Z,51940.08
2019-05-29T12:48:53.430Z,51337.80
2019-05-29T12:51:21.970Z,51428.04
2019-05-29T12:53:50.383Z,52082.05
2019-05-29T12:56:19.098Z,52732.11
2019-05-29T12:58:47.479Z,52756.45
2019-05-29T13:01:15.873Z,52877.14
2019-05-29T13:03:45.949Z,52680.38
2019-05-29T13:06:16.173Z,52827.45
2019-05-29T13:08:44.574Z,53083.04
2019-05-29T13:11:12.962Z,52535.36
2019-05-29T13:13:41.425Z,51839.70
2019-05-29T13:16:09.747Z,51892.43
2019-05-29T13:18:38.137Z,51479.75
2019-05-29T13:21:06.548Z,52057.71
2019-05-29T13:23:44.736Z,52265.60
2019-05-29T13:26:05.752Z,51388.50
2019-05-29T13:28:34.435Z,51449.33
2019-05-29T13:31:04.602Z,52197.65
2019-05-29T13:33:32.934Z,52496.82
2019-05-29T13:36:02.223Z,52379.18
2019-05-29T13:38:30.739Z,52527.24
2019-05-29T13:41:00.399Z,51885.33
2019-05-29T13:43:28.822Z,52416.70
2019-05-29T13:45:58.363Z,52510.00
2019-05-29T13:48:26.886Z,52268.64
2019-05-29T13:50:55.261Z,52506.96
2019-05-29T13:53:23.664Z,52687.48
2019-05-29T13:55:52.078Z,52769.64
2019-05-29T13:58:20.463Z,53122.61
2019-05-29T14:00:48.859Z,53417.78
2019-05-29T14:03:17.521Z,53037.40
2019-05-29T14:05:45.991Z,52777.75
2019-05-29T14:08:14.383Z,51780.89
2019-05-29T14:10:43.086Z,52752.39
2019-05-29T14:13:11.488Z,51309.41
2019-05-29T14:15:39.891Z,52470.45
2019-05-29T14:18:09.105Z,52671.26
2019-05-29T14:20:37.601Z,53103.33
2019-05-29T14:23:07.351Z,53178.39
2019-05-29T14:25:36.066Z,53114.49
2019-05-29T14:28:04.595Z,53159.12
2019-05-29T14:30:32.980Z,52954.23
2019-05-29T14:33:02.316Z,53469.52
2019-05-29T14:35:31.108Z,53237.22
2019-05-29T14:37:59.541Z,53053.63
2019-05-29T14:40:27.927Z,53520.23
2019-05-29T14:42:56.391Z,52965.39
2019-05-29T14:45:24.880Z,53098.26
2019-05-29T14:47:53.489Z,53590.23
2019-05-29T14:50:21.959Z,52970.46
2019-05-29T14:52:50.361Z,52977.56
2019-05-29T14:55:19.102Z,52613.45
2019-05-29T14:57:47.739Z,53133.76
2019-05-29T15:00:24.746Z,53032.33
2019-05-29T15:02:46.878Z,53160.13
2019-05-29T15:05:15.801Z,52967.41
2019-05-29T15:07:44.438Z,53807.33
2019-05-29T15:10:25.138Z,54087.34
2019-05-29T15:12:43.142Z,53817.47
2019-05-29T15:15:16.234Z,53304.17
2019-05-29T15:17:43.390Z,53802.25
2019-05-29T15:20:16.148Z,53263.60
2019-05-29T15:22:43.500Z,53895.59
2019-05-29T15:25:21.083Z,53705.88
2019-05-29T15:27:42.685Z,53520.23
2019-05-29T15:30:16.120Z,53738.34
2019-05-29T15:32:42.099Z,53302.14
2019-05-29T15:35:14.856Z,53477.63
2019-05-29T15:37:41.811Z,53241.28
2019-05-29T15:40:11.164Z,53399.52
2019-05-29T15:42:39.520Z,52733.12
2019-05-29T15:45:09.905Z,52901.49
2019-05-29T15:47:38.320Z,53294.03
2019-05-29T15:50:09.276Z,53774.86
2019-05-29T15:52:37.794Z,53878.34
2019-05-29T15:55:23.536Z,53865.16
2019-05-29T15:57:38.787Z,53914.87
2019-05-29T16:00:11.697Z,53910.81
2019-05-29T16:02:40.146Z,53717.04
2019-05-29T16:05:09.174Z,52815.28
2019-05-29T16:07:37.562Z,53391.41
2019-05-29T16:10:08.237Z,53140.86
2019-05-29T16:12:36.665Z,53460.39
2019-05-29T16:15:09.187Z,52929.89
2019-05-29T16:17:37.577Z,52945.10
2019-05-29T16:20:10.382Z,52898.45
2019-05-29T16:22:38.923Z,53075.95
2019-05-29T16:25:07.845Z,53307.21
2019-05-29T16:27:36.241Z,53009.00
2019-05-29T16:30:07.287Z,53495.89
2019-05-29T16:32:35.934Z,53660.23
2019-05-29T16:35:06.992Z,53396.48
2019-05-29T16:37:35.374Z,53532.41
2019-05-29T16:40:05.442Z,53363.00
2019-05-29T16:42:34.106Z,53462.41
2019-05-29T16:45:02.528Z,52986.69
2019-05-29T16:47:30.947Z,53340.69
2019-05-29T16:49:59.568Z,53618.64
2019-05-29T16:52:27.972Z,53935.16
2019-05-29T16:54:56.385Z,53871.24
2019-05-29T16:57:25.017Z,53904.72
2019-05-29T16:59:53.413Z,54081.25
2019-05-29T17:02:22.133Z,53849.94
2019-05-29T17:04:50.793Z,53756.60
2019-05-29T17:07:20.085Z,53734.29
2019-05-29T17:09:48.686Z,54185.75
2019-05-29T17:12:18.174Z,54100.53
2019-05-29T17:14:46.848Z,54051.83
2019-05-29T17:17:16.496Z,54156.33
2019-05-29T17:19:45.474Z,54338.96
2019-05-29T17:22:14.590Z,54343.02
2019-05-29T17:24:43.185Z,54321.71
2019-05-29T17:27:11.558Z,54138.07
2019-05-29T17:29:40.189Z,54226.34
2019-05-29T17:32:08.600Z,54478.98
2019-05-29T17:34:36.995Z,54506.37
2019-05-29T17:37:05.474Z,54569.29
2019-05-29T17:39:34.185Z,54354.18
2019-05-29T17:42:02.583Z,54304.46
2019-05-29T17:44:31.259Z,54241.55
2019-05-29T17:46:59.661Z,53702.84
2019-05-29T17:49:34.118Z,53496.91
2019-05-29T17:51:58.217Z,53417.78
2019-05-29T17:54:26.618Z,54006.18
2019-05-29T17:56:55.082Z,54160.39
2019-05-29T17:59:24.115Z,53619.65
2019-05-29T18:01:52.611Z,53909.79
2019-05-29T18:04:22.605Z,54490.14
2019-05-29T18:06:51.192Z,54283.16
2019-05-29T18:09:23.800Z,54178.65
2019-05-29T18:11:49.734Z,54252.71
2019-05-29T18:14:19.195Z,54024.44
2019-05-29T18:16:47.915Z,53712.98
2019-05-29T18:19:17.514Z,53537.48
2019-05-29T18:21:46.526Z,53325.47
2019-05-29T18:24:15.171Z,53165.20
2019-05-29T18:26:47.169Z,53027.26
2019-05-29T18:29:13.923Z,52786.88
2019-05-29T18:31:42.342Z,52831.50
2019-05-29T18:34:10.741Z,52999.87
2019-05-29T18:36:39.437Z,53094.20
2019-05-29T18:39:08.781Z,53163.18
2019-05-29T18:41:37.412Z,53212.88
2019-05-29T18:44:05.941Z,53252.44
2019-05-29T18:46:37.943Z,53279.82
2019-05-29T18:49:04.615Z,53372.13
2019-05-29T18:51:33.269Z,53117.53
2019-05-29T18:54:01.676Z,53155.06
2019-05-29T18:56:30.645Z,53257.51
2019-05-29T18:58:59.320Z,53337.64
2019-05-29T19:01:27.703Z,53396.48
2019-05-29T19:03:56.089Z,53488.79
2019-05-29T19:06:25.571Z,53585.16
2019-05-29T19:08:54.064Z,53553.71
2019-05-29T19:11:23.703Z,53548.64
2019-05-29T19:13:52.596Z,53581.10
2019-05-29T19:16:21.813Z,53507.05
2019-05-29T19:18:50.353Z,53353.88
2019-05-29T19:21:18.763Z,53307.21
2019-05-29T19:23:47.132Z,53160.13
2019-05-29T19:26:15.519Z,53014.07
2019-05-29T19:28:44.225Z,52941.04
2019-05-29T19:31:12.610Z,52865.99
2019-05-29T19:33:41.268Z,52742.25
2019-05-29T19:36:09.974Z,52653.00
2019-05-29T19:38:44.647Z,52616.49
2019-05-29T19:41:13.312Z,52540.43
2019-05-29T19:43:42.008Z,52377.15
2019-05-29T19:46:10.668Z,52359.91
2019-05-29T19:48:39.111Z,52348.75
2019-05-29T19:51:07.582Z,52322.39
2019-05-29T19:53:35.968Z,52427.86
2019-05-29T19:56:04.585Z,52358.89
2019-05-29T19:58:33.902Z,52263.57
2019-05-29T20:01:02.703Z,52194.61
2019-05-29T20:03:31.080Z,52147.96
2019-05-29T20:05:59.452Z,52110.44
2019-05-29T20:08:32.586Z,52052.64
2019-05-29T20:10:58.613Z,52062.78
2019-05-29T20:13:27.630Z,51988.75
2019-05-29T20:15:56.028Z,51979.63
2019-05-29T20:18:24.393Z,52013.09
2019-05-29T20:20:52.774Z,51961.38
2019-05-29T20:23:21.426Z,51967.46
2019-05-29T20:25:49.815Z,52061.77
2019-05-29T20:28:18.217Z,52112.47
2019-05-29T20:30:46.596Z,52051.63
2019-05-29T20:33:15.180Z,52102.33
2019-05-29T20:35:43.596Z,52049.60
2019-05-29T20:38:12.051Z,52121.60
2019-05-29T20:40:41.374Z,52115.51
2019-05-29T20:43:09.860Z,52130.72
2019-05-29T20:45:39.746Z,52124.64
2019-05-29T20:48:08.295Z,52057.71
2019-05-29T20:50:37.088Z,51979.63
2019-05-29T20:53:05.590Z,51957.32
2019-05-29T20:55:33.976Z,51951.24
2019-05-29T20:58:02.643Z,51952.25
2019-05-29T21:00:31.933Z,52007.01
2019-05-29T21:03:00.341Z,52031.34
2019-05-29T21:05:28.731Z,52037.43
2019-05-29T21:07:57.126Z,51991.80
2019-05-29T21:10:25.503Z,51962.39
2019-05-29T21:12:53.918Z,51914.73
2019-05-29T21:15:22.340Z,51948.20
2019-05-29T21:17:50.829Z,51948.20
2019-05-29T21:20:19.362Z,51979.63
2019-05-29T21:22:47.754Z,52000.93
2019-05-29T21:25:19.093Z,51951.24
2019-05-29T21:27:49.096Z,51980.64
2019-05-29T21:30:19.599Z,51996.87
2019-05-29T21:32:48.013Z,51999.91
2019-05-29T21:35:16.680Z,51975.57
2019-05-29T21:37:46.520Z,51965.43
2019-05-29T21:40:15.289Z,51943.13
2019-05-29T21:42:44.867Z,51968.48
2019-05-29T21:45:14.198Z,51962.39
2019-05-29T21:47:43.543Z,51930.96
2019-05-29T21:50:12.453Z,51947.18
2019-05-29T21:52:41.492Z,51954.28
2019-05-29T21:55:11.870Z,51927.91
2019-05-29T21:57:43.923Z,51968.48
2019-05-29T22:00:16.320Z,52042.50
2019-05-29T22:02:44.780Z,52137.82
2019-05-29T22:05:13.478Z,52138.84
2019-05-29T22:07:42.771Z,52230.10
2019-05-29T22:10:12.348Z,52275.74
2019-05-29T22:12:40.743Z,52342.67
2019-05-29T22:15:09.572Z,52386.27
2019-05-29T22:17:37.980Z,52473.49
2019-05-29T22:20:07.556Z,52492.76
2019-05-29T22:22:35.934Z,52541.44
2019-05-29T22:25:06.990Z,52571.87
2019-05-29T22:27:35.756Z,52623.59
2019-05-29T22:30:05.879Z,52629.68
2019-05-29T22:32:34.285Z,52657.06
2019-05-29T22:35:02.849Z,52645.90
2019-05-29T22:37:31.264Z,52678.36
2019-05-29T22:39:59.745Z,52701.68
2019-05-29T22:42:28.407Z,52747.32
2019-05-29T22:44:57.728Z,52739.21
2019-05-29T22:47:26.296Z,52758.48
2019-05-29T22:49:55.778Z,52769.64
2019-05-29T22:52:24.212Z,52782.82
2019-05-29T22:54:53.696Z,52821.36
2019-05-29T22:57:22.377Z,52847.73
2019-05-29T22:59:51.831Z,52847.73
2019-05-29T23:02:20.536Z,52887.29
2019-05-29T23:04:49.150Z,52895.40
2019-05-29T23:07:17.550Z,52881.20
2019-05-29T23:09:45.939Z,52920.76
2019-05-29T23:12:14.411Z,52990.74
2019-05-29T23:14:42.813Z,52979.59
2019-05-29T23:17:11.208Z,53011.03
2019-05-29T23:19:39.598Z,53029.29
2019-05-29T23:22:08.075Z,53012.04
2019-05-29T23:24:36.524Z,53072.90
2019-05-29T23:27:05.081Z,53093.19
2019-05-29T23:29:47.941Z,53098.26
2019-05-29T23:32:03.586Z,53095.21
2019-05-29T23:34:32.008Z,53138.83
2019-05-29T23:37:01.295Z,53193.61
2019-05-29T23:39:29.822Z,53187.52
2019-05-29T23:41:59.314Z,53182.45
2019-05-29T23:44:27.865Z,53186.50
2019-05-29T23:46:57.526Z,53175.35
2019-05-29T23:49:26.051Z,53132.75
2019-05-29T23:51:55.462Z,53141.87
2019-05-29T23:54:23.898Z,53127.68
2019-05-29T23:56:53.772Z,53155.06
2019-05-29T23:59:22.255Z,53186.50
